Time;durP1;ratioP1;P1;durP2;ratioP2;P2;SDS_P1;SDS_P2;PMS_P1;PMS_P2;Temp;Humidity;BMP_temperature;BMP_pressure;BME280_temperature;BME280_humidity;BME280_pressure;Samples;Min_cycle;Max_cycle;Signal;HPM_P1;HPM_P2
2023/01/14 00:01:27;;;;;;;0.00;0.00;;;5.80;99.90;;;;;;5096584;28;20483;-86
2023/01/14 00:03:53;;;;;;;1.35;0.75;;;5.90;99.90;;;;;;5096744;28;20040;-87
2023/01/14 00:06:22;;;;;;;0.00;0.00;;;5.90;99.90;;;;;;5096619;28;20055;-87
2023/01/14 00:08:55;;;;;;;0.00;0.00;;;6.00;99.90;;;;;;5095326;28;20119;-87
2023/01/14 00:11:45;;;;;;;0.45;0.43;;;6.00;99.90;;;;;;5096976;28;20462;-87
2023/01/14 00:14:07;;;;;;;0.10;0.10;;;6.10;99.90;;;;;;5096153;28;20468;-86
2023/01/14 00:16:33;;;;;;;0.00;0.00;;;6.10;99.90;;;;;;5095950;28;20071;-87
2023/01/14 00:18:58;;;;;;;24.13;0.55;;;6.00;99.90;;;;;;5096421;28;20036;-86
2023/01/14 00:21:24;;;;;;;1.55;1.23;;;6.20;99.90;;;;;;5096703;28;20039;-86
2023/01/14 00:23:53;;;;;;;0.65;0.65;;;6.30;99.90;;;;;;5095615;28;20040;-86
2023/01/14 00:26:19;;;;;;;0.32;0.32;;;6.40;99.90;;;;;;5095774;28;20395;-86
2023/01/14 00:28:47;;;;;;;0.00;0.00;;;6.40;99.90;;;;;;5095281;28;20491;-86
2023/01/14 00:31:17;;;;;;;0.75;0.75;;;6.40;99.90;;;;;;5095078;28;20042;-86
2023/01/14 00:33:43;;;;;;;0.10;0.10;;;6.50;99.90;;;;;;5095302;28;20040;-86
2023/01/14 00:36:10;;;;;;;0.47;0.47;;;6.50;99.90;;;;;;5094239;28;20498;-86
2023/01/14 00:38:37;;;;;;;0.15;0.15;;;6.30;99.90;;;;;;5094442;28;20044;-86
2023/01/14 00:41:15;;;;;;;0.00;0.00;;;6.40;99.90;;;;;;5094564;28;20058;-87
2023/01/14 00:43:42;;;;;;;0.15;0.15;;;6.30;99.90;;;;;;5094839;28;20052;-86
2023/01/14 00:46:11;;;;;;;0.00;0.00;;;6.20;99.90;;;;;;5093633;28;20040;-86
2023/01/14 00:48:37;;;;;;;0.10;0.10;;;6.20;99.90;;;;;;5094965;28;20044;-86
2023/01/14 00:51:04;;;;;;;0.30;0.30;;;7.10;99.90;;;;;;5094655;28;20503;-86
2023/01/14 00:53:30;;;;;;;0.00;0.00;;;6.20;99.90;;;;;;5094654;28;20044;-86
2023/01/14 00:55:56;;;;;;;0.08;0.08;;;6.20;99.90;;;;;;5094996;28;20407;-86
2023/01/14 00:58:22;;;;;;;0.47;0.40;;;6.00;99.90;;;;;;5095357;28;20043;-86
2023/01/14 01:00:47;;;;;;;2.90;1.77;;;6.00;99.90;;;;;;5093507;28;20072;-86
2023/01/14 01:03:14;;;;;;;3.03;1.17;;;6.00;99.90;;;;;;5094889;28;20036;-87
2023/01/14 01:05:40;;;;;;;0.08;0.08;;;6.10;99.90;;;;;;5095077;28;20169;-86
2023/01/14 01:08:09;;;;;;;0.20;0.20;;;6.20;99.90;;;;;;5094918;28;20044;-86
2023/01/14 01:10:35;;;;;;;0.00;0.00;;;6.20;99.90;;;;;;5094941;28;20040;-86
2023/01/14 01:13:02;;;;;;;0.20;0.20;;;6.10;99.90;;;;;;5094638;28;20040;-87
2023/01/14 01:15:28;;;;;;;3.30;0.50;;;7.30;99.90;;;;;;5094623;28;20032;-86
2023/01/14 01:17:53;;;;;;;0.22;0.20;;;6.10;99.90;;;;;;5094660;28;20503;-86
2023/01/14 01:20:19;;;;;;;0.10;0.10;;;6.10;99.90;;;;;;5097596;28;20040;-86
2023/01/14 01:22:44;;;;;;;1.08;0.43;;;6.00;99.90;;;;;;5098569;28;20044;-86
2023/01/14 01:25:10;;;;;;;0.13;0.13;;;5.90;99.90;;;;;;5098112;28;20048;-86
2023/01/14 01:27:35;;;;;;;10.32;3.72;;;5.80;99.90;;;;;;5098123;28;20458;-85
2023/01/14 01:30:01;;;;;;;4.28;2.35;;;5.80;99.90;;;;;;5098160;28;20102;-86
2023/01/14 01:32:27;;;;;;;2.20;1.58;;;5.80;99.90;;;;;;5098039;28;20119;-86
2023/01/14 01:34:52;;;;;;;0.10;0.10;;;5.80;99.90;;;;;;5097992;28;20036;-86
2023/01/14 01:37:18;;;;;;;0.00;0.00;;;5.70;99.90;;;;;;5098036;28;20048;-85
2023/01/14 01:39:45;;;;;;;0.00;0.00;;;5.60;99.90;;;;;;5098201;28;20447;-86
2023/01/14 01:42:13;;;;;;;0.10;0.10;;;5.50;99.90;;;;;;5098595;28;20127;-86
2023/01/14 01:44:41;;;;;;;5.97;0.30;;;5.50;99.90;;;;;;5097946;28;20088;-86
2023/01/14 01:47:10;;;;;;;0.98;0.13;;;5.40;99.90;;;;;;5077909;28;20056;-86
2023/01/14 01:49:38;;;;;;;0.10;0.10;;;5.40;99.90;;;;;;5078270;28;20056;-86
2023/01/14 01:52:24;;;;;;;0.00;0.00;;;5.30;99.90;;;;;;5078437;28;20048;-86
2023/01/14 01:55:03;;;;;;;0.47;0.45;;;5.30;99.90;;;;;;5078679;28;20050;-86
2023/01/14 01:57:30;;;;;;;0.00;0.00;;;5.30;99.90;;;;;;5096570;28;20044;-86
2023/01/14 02:00:01;;;;;;;0.00;0.00;;;5.30;99.90;;;;;;5097909;28;20039;-86
2023/01/14 02:02:28;;;;;;;0.35;0.35;;;5.40;99.90;;;;;;5097919;28;20499;-86
2023/01/14 02:04:54;;;;;;;1.80;1.33;;;5.50;99.90;;;;;;5097532;28;20044;-86
2023/01/14 02:07:25;;;;;;;0.30;0.30;;;5.60;99.90;;;;;;5097491;28;20051;-86
2023/01/14 02:09:54;;;;;;;3.03;1.00;;;5.70;99.90;;;;;;5097845;28;20434;-86
2023/01/14 02:12:50;;;;;;;0.20;0.20;;;5.80;99.90;;;;;;5098219;28;20114;-86
2023/01/14 02:15:31;;;;;;;0.93;0.85;;;5.90;99.90;;;;;;5097803;28;20051;-86
2023/01/14 02:18:08;;;;;;;0.00;0.00;;;5.90;99.90;;;;;;5098046;28;20058;-86
2023/01/14 02:20:40;;;;;;;2.25;0.28;;;6.00;99.90;;;;;;5098327;28;20139;-86
2023/01/14 02:23:39;;;;;;;0.00;0.00;;;6.00;99.90;;;;;;5097991;28;20036;-86
2023/01/14 02:26:14;;;;;;;2.97;1.38;;;6.00;99.90;;;;;;5097321;28;20452;-86
2023/01/14 02:29:17;;;;;;;0.65;0.55;;;6.00;99.90;;;;;;5097665;28;20036;-86
2023/01/14 02:32:13;;;;;;;1.45;1.35;;;6.00;99.90;;;;;;5096657;28;20040;-86
2023/01/14 02:34:50;;;;;;;0.00;0.00;;;6.00;99.90;;;;;;5096377;28;20123;-86
2023/01/14 02:37:44;;;;;;;0.00;0.00;;;5.90;99.90;;;;;;5095402;28;20514;-86
2023/01/14 02:40:40;;;;;;;2.28;1.48;;;5.90;99.90;;;;;;5097227;28;20051;-86
2023/01/14 02:46:29;;;;;;;0.10;0.10;;;5.90;99.90;;;;;;5096623;28;20137;-86
2023/01/14 02:48:56;;;;;;;0.00;0.00;;;6.00;99.90;;;;;;5097015;28;20127;-85
2023/01/14 02:51:23;;;;;;;0.50;0.50;;;6.00;99.90;;;;;;5096881;28;20046;-86
2023/01/14 02:53:48;;;;;;;1.02;0.47;;;6.00;99.90;;;;;;5096132;28;20040;-86
2023/01/14 02:56:14;;;;;;;3.13;0.93;;;5.90;99.90;;;;;;5096801;28;20036;-87
2023/01/14 02:58:57;;;;;;;0.32;0.30;;;5.90;99.90;;;;;;5095902;28;20062;-87
2023/01/14 03:01:25;;;;;;;0.22;0.22;;;5.90;99.90;;;;;;5095981;28;20052;-86
2023/01/14 03:04:27;;;;;;;1.02;0.55;;;5.80;99.90;;;;;;5095869;28;20117;-86
2023/01/14 03:07:24;;;;;;;0.00;0.00;;;5.70;99.90;;;;;;5096542;28;20058;-86
2023/01/14 03:10:08;;;;;;;0.00;0.00;;;5.60;99.90;;;;;;5096183;28;20048;-86
2023/01/14 03:12:37;;;;;;;0.00;0.00;;;5.50;99.90;;;;;;5096395;28;20044;-86
2023/01/14 03:15:19;;;;;;;4.05;1.00;;;5.50;99.90;;;;;;5095915;28;20070;-87
2023/01/14 03:17:55;;;;;;;0.88;0.77;;;5.50;99.90;;;;;;5095733;28;20059;-86
2023/01/14 03:20:26;;;;;;;7.70;1.98;;;5.40;99.90;;;;;;5096341;28;20066;-86
2023/01/14 03:22:55;;;;;;;0.03;0.03;;;5.40;99.90;;;;;;5096358;28;20043;-87
2023/01/14 03:25:23;;;;;;;0.05;0.05;;;5.30;99.90;;;;;;5096378;28;20044;-87
2023/01/14 03:27:50;;;;;;;4.40;1.38;;;6.10;99.90;;;;;;5096146;28;20036;-86
2023/01/14 03:30:21;;;;;;;0.20;0.20;;;5.30;99.90;;;;;;5096161;28;20068;-86
2023/01/14 03:33:12;;;;;;;0.00;0.00;;;5.20;99.90;;;;;;5096373;28;20090;-86
2023/01/14 03:35:42;;;;;;;1.45;1.35;;;5.20;99.90;;;;;;5087106;28;20101;-86
2023/01/14 03:38:16;;;;;;;1.25;0.85;;;5.30;99.90;;;;;;5079668;28;20033;-86
2023/01/14 03:40:43;;;;;;;0.03;0.03;;;5.20;99.90;;;;;;5077726;28;20083;-86
2023/01/14 03:43:32;;;;;;;0.20;0.20;;;5.20;99.90;;;;;;5094334;28;20510;-86
2023/01/14 03:45:58;;;;;;;8.43;1.55;;;5.10;99.90;;;;;;5095932;28;20040;-87
2023/01/14 03:48:25;;;;;;;0.20;0.10;;;5.00;99.90;;;;;;5095782;28;20105;-86
2023/01/14 03:51:01;;;;;;;1.10;0.63;;;5.00;99.90;;;;;;5095873;28;20048;-87
2023/01/14 03:53:35;;;;;;;0.00;0.00;;;5.00;99.90;;;;;;5095165;28;20056;-87
2023/01/14 03:56:07;;;;;;;0.00;0.00;;;5.00;99.90;;;;;;5095982;28;20166;-86
2023/01/14 03:58:41;;;;;;;0.35;0.32;;;5.00;99.90;;;;;;5095900;28;20175;-87
2023/01/14 04:01:20;;;;;;;0.65;0.65;;;5.00;99.90;;;;;;5095721;28;20090;-86
2023/01/14 04:03:46;;;;;;;1.10;1.00;;;4.90;99.90;;;;;;5095574;28;20067;-86
2023/01/14 04:06:13;;;;;;;0.00;0.00;;;4.80;99.90;;;;;;5095658;28;20115;-86
2023/01/14 04:08:39;;;;;;;0.20;0.20;;;4.80;99.90;;;;;;5095911;28;20062;-86
2023/01/14 04:11:05;;;;;;;0.00;0.00;;;4.80;99.90;;;;;;5096038;28;20587;-86
2023/01/14 04:16:15;;;;;;;1.35;1.27;;;4.80;99.90;;;;;;5095786;28;20048;-86
2023/01/14 04:18:40;;;;;;;0.08;0.08;;;4.80;99.90;;;;;;5095502;28;20040;-86
2023/01/14 04:21:06;;;;;;;2.22;1.13;;;4.90;99.90;;;;;;5095936;28;20040;-86
2023/01/14 04:23:32;;;;;;;0.00;0.00;;;5.00;99.90;;;;;;5095405;28;20040;-87
2023/01/14 04:25:58;;;;;;;0.75;0.50;;;5.00;99.90;;;;;;5094895;28;20089;-87
2023/01/14 04:28:24;;;;;;;0.50;0.50;;;5.00;99.90;;;;;;5095049;28;20044;-86
2023/01/14 04:30:50;;;;;;;0.85;0.85;;;5.20;99.90;;;;;;5094986;28;20074;-86
2023/01/14 04:33:16;;;;;;;0.00;0.00;;;5.10;99.90;;;;;;5095196;28;20044;-86
2023/01/14 04:35:45;;;;;;;0.22;0.22;;;5.10;99.90;;;;;;5095246;28;20498;-87
2023/01/14 04:38:11;;;;;;;0.00;0.00;;;5.00;99.90;;;;;;5095826;28;20070;-86
2023/01/14 04:40:36;;;;;;;0.32;0.32;;;5.00;99.90;;;;;;5095748;28;20036;-86
2023/01/14 04:43:02;;;;;;;0.15;0.15;;;5.00;99.90;;;;;;5095759;28;20044;-87
2023/01/14 04:45:27;;;;;;;0.00;0.00;;;5.00;99.90;;;;;;5095756;28;20111;-86
2023/01/14 04:47:53;;;;;;;0.38;0.38;;;5.10;99.90;;;;;;5095743;28;20066;-87
2023/01/14 04:50:30;;;;;;;20.83;2.08;;;5.10;99.90;;;;;;5095720;28;20112;-86
2023/01/14 04:53:08;;;;;;;0.25;0.25;;;5.10;99.90;;;;;;5095913;28;20112;-87
2023/01/14 04:55:37;;;;;;;0.35;0.35;;;5.00;99.90;;;;;;5099140;28;20036;-86
2023/01/14 04:58:04;;;;;;;0.20;0.20;;;5.00;99.90;;;;;;5099176;28;20119;-86
2023/01/14 05:00:29;;;;;;;0.10;0.10;;;4.90;99.90;;;;;;5099985;28;20040;-86
2023/01/14 05:02:56;;;;;;;0.10;0.10;;;4.90;99.90;;;;;;5099775;28;20127;-87
2023/01/14 05:05:22;;;;;;;0.00;0.00;;;4.90;99.90;;;;;;5099238;28;20072;-86
2023/01/14 05:07:47;;;;;;;0.57;0.47;;;5.00;99.90;;;;;;5099123;28;20040;-86
2023/01/14 05:10:14;;;;;;;0.10;0.10;;;4.90;99.90;;;;;;5098266;28;20059;-86
2023/01/14 05:12:55;;;;;;;0.73;0.60;;;5.00;99.90;;;;;;5098593;28;20059;-87
2023/01/14 05:15:22;;;;;;;0.00;0.00;;;5.10;99.90;;;;;;5098799;28;20044;-87
2023/01/14 05:17:48;;;;;;;1.08;0.95;;;5.10;99.90;;;;;;5098406;28;20098;-87
2023/01/14 05:20:14;;;;;;;0.30;0.30;;;5.20;99.90;;;;;;5098178;28;20043;-87
2023/01/14 05:22:39;;;;;;;0.00;0.00;;;5.30;99.90;;;;;;5099084;28;20040;-86
2023/01/14 05:25:06;;;;;;;0.60;0.60;;;5.40;99.90;;;;;;5098917;28;20071;-87
2023/01/14 05:27:33;;;;;;;0.00;0.00;;;5.30;99.90;;;;;;5099068;28;20480;-86
2023/01/14 05:29:59;;;;;;;0.10;0.10;;;5.40;99.90;;;;;;5099068;28;20044;-86
2023/01/14 05:32:24;;;;;;;0.65;0.65;;;5.40;99.90;;;;;;5098927;28;20457;-86
2023/01/14 05:34:50;;;;;;;1.65;0.15;;;5.40;99.90;;;;;;5098356;28;20036;-86
2023/01/14 05:37:15;;;;;;;0.35;0.35;;;5.40;99.90;;;;;;5098785;28;20044;-86
2023/01/14 05:39:41;;;;;;;0.28;0.28;;;5.40;99.90;;;;;;5098817;28;20036;-86
2023/01/14 05:47:35;;;;;;;0.00;0.00;;;5.30;99.90;;;;;;5081728;28;20044;-87
2023/01/14 05:50:01;;;;;;;0.00;0.00;;;5.30;99.90;;;;;;5094837;28;20495;-86
2023/01/14 05:52:26;;;;;;;0.00;0.00;;;5.30;99.90;;;;;;5098393;28;20078;-86
2023/01/14 05:54:52;;;;;;;0.38;0.38;;;5.30;99.90;;;;;;5098667;28;20044;-86
2023/01/14 05:57:17;;;;;;;0.00;0.00;;;5.30;99.90;;;;;;5098686;28;20032;-87
2023/01/14 05:59:43;;;;;;;0.20;0.20;;;5.30;99.90;;;;;;5098056;28;20032;-86
2023/01/14 06:07:38;;;;;;;0.00;0.00;;;5.20;99.90;;;;;;5097665;28;20088;-86
2023/01/14 06:10:04;;;;;;;0.47;0.47;;;5.20;99.90;;;;;;5097521;28;20036;-87
2023/01/14 06:12:39;;;;;;;0.00;0.00;;;5.30;99.90;;;;;;5095642;28;20061;-86
2023/01/14 06:15:05;;;;;;;1.08;1.00;;;5.30;99.90;;;;;;5097536;28;20538;-86
2023/01/14 06:17:44;;;;;;;0.30;0.30;;;5.40;99.90;;;;;;5108228;28;20044;-85
2023/01/14 06:20:10;;;;;;;0.05;0.05;;;5.30;99.90;;;;;;5093541;28;20040;-86
2023/01/14 06:22:36;;;;;;;0.65;0.47;;;5.30;99.90;;;;;;5102737;28;20040;-86
2023/01/14 06:25:01;;;;;;;0.43;0.43;;;5.30;99.90;;;;;;5099155;28;20051;-87
2023/01/14 06:27:27;;;;;;;0.40;0.40;;;5.30;99.90;;;;;;5098299;28;20040;-86
2023/01/14 06:29:52;;;;;;;9.88;1.92;;;5.40;99.90;;;;;;5097959;28;20048;-86
2023/01/14 06:32:18;;;;;;;0.08;0.08;;;5.40;99.90;;;;;;5097904;28;20036;-87
2023/01/14 06:34:44;;;;;;;0.10;0.10;;;5.40;99.90;;;;;;5097914;28;20204;-86
2023/01/14 06:37:09;;;;;;;0.35;0.17;;;5.30;99.90;;;;;;5097383;28;20051;-86
2023/01/14 06:39:35;;;;;;;0.00;0.00;;;5.30;99.90;;;;;;5098038;28;20119;-86
2023/01/14 06:42:01;;;;;;;10.55;0.98;;;5.30;99.90;;;;;;5097900;28;20040;-86
2023/01/14 06:44:27;;;;;;;0.00;0.00;;;5.30;99.90;;;;;;5097715;28;20051;-86
2023/01/14 06:46:54;;;;;;;1.67;0.38;;;5.30;99.90;;;;;;5097294;28;20087;-86
2023/01/14 06:49:20;;;;;;;3.03;2.08;;;5.30;99.90;;;;;;5097085;28;20461;-86
2023/01/14 06:51:45;;;;;;;0.30;0.30;;;5.20;99.90;;;;;;5097477;28;20040;-85
2023/01/14 06:54:12;;;;;;;0.00;0.00;;;5.20;99.90;;;;;;5096924;28;20117;-86
2023/01/14 06:56:38;;;;;;;0.00;0.00;;;5.20;99.90;;;;;;5096806;28;20093;-86
2023/01/14 06:59:03;;;;;;;0.50;0.50;;;5.20;99.90;;;;;;5096476;28;20052;-86
2023/01/14 07:01:29;;;;;;;1.98;1.08;;;5.30;99.90;;;;;;5087634;28;20554;-86
2023/01/14 07:03:55;;;;;;;0.43;0.43;;;5.30;99.90;;;;;;5096047;28;20168;-86
2023/01/14 07:06:20;;;;;;;0.00;0.00;;;5.30;99.90;;;;;;5096071;28;20040;-87
2023/01/14 07:08:46;;;;;;;0.10;0.10;;;5.30;99.90;;;;;;5095688;28;20043;-86
2023/01/14 07:11:14;;;;;;;0.45;0.45;;;5.30;99.90;;;;;;5097196;28;20386;-87
2023/01/14 07:13:40;;;;;;;2.72;2.17;;;5.40;99.90;;;;;;5097592;28;20071;-86
2023/01/14 07:16:06;;;;;;;5.63;0.70;;;5.50;99.90;;;;;;5097009;28;20076;-86
2023/01/14 07:18:31;;;;;;;0.10;0.10;;;5.60;99.90;;;;;;5096249;28;20512;-87
2023/01/14 07:20:59;;;;;;;19.17;1.17;;;5.60;99.90;;;;;;5096212;28;20036;-86
2023/01/14 07:23:26;;;;;;;6.70;1.88;;;5.60;99.90;;;;;;5096214;28;20036;-86
2023/01/14 07:25:55;;;;;;;0.10;0.10;;;5.60;99.90;;;;;;5096323;28;20051;-86
2023/01/14 07:28:22;;;;;;;0.35;0.13;;;5.80;99.90;;;;;;5074217;28;20129;-86
2023/01/14 07:30:51;;;;;;;0.75;0.75;;;5.80;99.90;;;;;;5086754;28;20463;-87
2023/01/14 07:33:17;;;;;;;0.43;0.30;;;5.90;99.90;;;;;;5095980;28;20036;-87
2023/01/14 07:35:44;;;;;;;1.17;0.98;;;5.90;99.90;;;;;;5095686;28;20097;-86
2023/01/14 07:38:10;;;;;;;2.45;2.08;;;5.90;99.90;;;;;;5095456;28;20048;-87
2023/01/14 07:40:37;;;;;;;0.65;0.65;;;5.90;99.90;;;;;;5095922;28;20495;-86
2023/01/14 07:43:03;;;;;;;3.13;1.35;;;5.90;99.90;;;;;;5090591;28;20044;-87
2023/01/14 07:45:29;;;;;;;0.22;0.22;;;5.90;99.90;;;;;;5095184;28;20036;-86
2023/01/14 07:47:56;;;;;;;0.00;0.00;;;6.00;99.90;;;;;;5093913;28;20036;-86
2023/01/14 07:50:22;;;;;;;8.68;2.15;;;6.00;99.90;;;;;;5090348;28;20131;-87
2023/01/14 07:52:59;;;;;;;0.00;0.00;;;6.10;99.90;;;;;;5072171;28;20051;-87
2023/01/14 07:55:26;;;;;;;1.60;0.43;;;6.10;99.90;;;;;;5088440;28;20050;-87
2023/01/14 07:57:51;;;;;;;0.00;0.00;;;6.10;99.90;;;;;;5090354;28;20080;-86
2023/01/14 08:00:18;;;;;;;0.00;0.00;;;6.10;99.90;;;;;;5090675;28;20476;-86
2023/01/14 08:02:44;;;;;;;5.80;0.80;;;6.10;99.90;;;;;;5090204;28;20044;-87
2023/01/14 08:05:10;;;;;;;1.77;1.20;;;6.20;99.90;;;;;;5090176;28;20538;-87
2023/01/14 08:07:35;;;;;;;0.00;0.00;;;6.20;99.90;;;;;;5089955;28;20043;-87
2023/01/14 08:10:01;;;;;;;0.00;0.00;;;6.20;99.90;;;;;;5090395;28;20044;-87
2023/01/14 08:12:28;;;;;;;0.00;0.00;;;6.20;99.90;;;;;;5090079;28;20517;-86
2023/01/14 08:14:54;;;;;;;0.00;0.00;;;6.20;99.90;;;;;;5090401;28;20079;-87
2023/01/14 08:17:19;;;;;;;1.08;0.57;;;6.20;99.90;;;;;;5089794;28;20046;-87
2023/01/14 08:19:45;;;;;;;5.68;2.35;;;6.20;99.90;;;;;;5090373;28;20123;-86
2023/01/14 08:22:12;;;;;;;0.30;0.30;;;6.30;99.90;;;;;;5089971;28;20032;-86
2023/01/14 08:24:38;;;;;;;3.97;0.80;;;6.30;99.90;;;;;;5089782;28;20474;-86
2023/01/14 08:27:04;;;;;;;4.57;0.75;;;6.20;99.90;;;;;;5090254;28;20036;-86
2023/01/14 08:29:30;;;;;;;0.00;0.00;;;6.20;99.90;;;;;;5092247;28;20051;-86
2023/01/14 08:31:55;;;;;;;0.20;0.17;;;6.10;99.90;;;;;;5094281;28;20410;-87
2023/01/14 08:34:22;;;;;;;1.08;0.90;;;6.10;99.90;;;;;;5094090;28;20044;-86
2023/01/14 08:36:48;;;;;;;0.00;0.00;;;6.00;99.90;;;;;;5093991;28;20032;-86
2023/01/14 08:39:15;;;;;;;0.00;0.00;;;6.10;99.90;;;;;;5093026;28;20101;-87
2023/01/14 08:41:42;;;;;;;4.53;3.58;;;6.00;99.90;;;;;;5094097;28;20404;-86
2023/01/14 08:44:07;;;;;;;0.22;0.22;;;6.00;99.90;;;;;;5091061;28;20444;-85
2023/01/14 08:46:33;;;;;;;0.63;0.63;;;5.90;99.90;;;;;;5093297;28;20123;-85
2023/01/14 08:48:59;;;;;;;0.65;0.65;;;5.90;99.90;;;;;;5092968;28;20071;-85
2023/01/14 08:51:28;;;;;;;3.08;2.03;;;5.90;99.90;;;;;;5093298;28;20039;-85
2023/01/14 08:54:01;;;;;;;0.17;0.17;;;5.90;99.90;;;;;;5093377;28;20077;-86
2023/01/14 08:56:27;;;;;;;5.00;1.65;;;5.90;99.90;;;;;;5092972;28;20044;-85
2023/01/14 08:58:53;;;;;;;1.10;1.00;;;5.90;99.90;;;;;;5093500;28;20087;-85
2023/01/14 09:01:19;;;;;;;4.65;0.90;;;5.90;99.90;;;;;;5093468;28;20051;-86
2023/01/14 09:03:46;;;;;;;0.00;0.00;;;5.90;99.90;;;;;;5094180;28;20055;-86
2023/01/14 09:06:14;;;;;;;0.08;0.08;;;5.90;99.90;;;;;;5093098;28;20048;-86
2023/01/14 09:17:05;;;;;;;1.73;0.63;;;5.90;99.90;;;;;;5090255;28;20403;-86
2023/01/14 09:19:34;;;;;;;1.00;0.93;;;5.90;99.90;;;;;;5092711;28;20406;-86
2023/01/14 09:22:00;;;;;;;3.00;0.75;;;5.80;99.90;;;;;;5093272;28;20086;-86
2023/01/14 09:24:25;;;;;;;0.40;0.40;;;5.80;99.90;;;;;;5093252;28;20040;-86
2023/01/14 09:26:51;;;;;;;0.00;0.00;;;5.90;99.90;;;;;;5091474;28;20040;-87
2023/01/14 09:29:17;;;;;;;0.00;0.00;;;5.90;99.90;;;;;;5093296;28;20523;-86
2023/01/14 09:31:42;;;;;;;0.13;0.13;;;5.90;99.90;;;;;;5092747;28;20042;-87
2023/01/14 09:34:08;;;;;;;0.05;0.05;;;5.90;99.90;;;;;;5093081;28;20127;-86
2023/01/14 09:36:33;;;;;;;0.08;0.08;;;5.90;99.90;;;;;;5092979;28;20066;-87
2023/01/14 09:38:59;;;;;;;0.52;0.52;;;6.00;99.90;;;;;;5092040;28;20086;-87
2023/01/14 09:41:36;;;;;;;3.20;0.90;;;5.90;99.90;;;;;;5089704;28;20698;-87
2023/01/14 09:44:05;;;;;;;0.10;0.10;;;6.00;99.90;;;;;;5092253;28;20399;-87
2023/01/14 09:46:32;;;;;;;0.73;0.30;;;6.00;99.90;;;;;;5092705;28;20032;-87
2023/01/14 09:49:01;;;;;;;20.83;0.43;;;6.00;99.90;;;;;;5092495;28;20557;-87
2023/01/14 09:52:00;;;;;;;0.17;0.17;;;6.00;99.90;;;;;;5093338;28;20066;-87
2023/01/14 09:54:49;;;;;;;1.73;0.47;;;6.00;99.90;;;;;;5092934;28;20119;-87
2023/01/14 09:57:59;;;;;;;1.80;1.65;;;6.00;99.90;;;;;;5092106;28;20051;-87
2023/01/14 10:00:44;;;;;;;1.75;1.55;;;6.10;99.90;;;;;;5091988;28;20120;-87
2023/01/14 10:03:20;;;;;;;0.10;0.10;;;6.10;99.90;;;;;;5089622;28;20044;-86
2023/01/14 10:05:59;;;;;;;0.00;0.00;;;6.10;99.90;;;;;;5091699;28;20491;-87
2023/01/14 10:08:28;;;;;;;0.00;0.00;;;6.10;99.90;;;;;;5092310;28;20100;-87
2023/01/14 10:10:55;;;;;;;0.60;0.60;;;6.20;99.90;;;;;;5092202;28;20048;-87
2023/01/14 10:13:30;;;;;;;0.00;0.00;;;6.20;99.90;;;;;;5092484;28;20040;-87
2023/01/14 10:16:15;;;;;;;0.00;0.00;;;6.30;99.90;;;;;;5092447;28;20051;-87
2023/01/14 10:19:17;;;;;;;0.20;0.20;;;6.30;99.90;;;;;;5092295;28;20044;-87
2023/01/14 10:22:06;;;;;;;0.63;0.55;;;6.30;99.90;;;;;;5079070;28;20048;-87
2023/01/14 10:24:32;;;;;;;0.00;0.00;;;6.30;99.90;;;;;;5090122;28;20040;-87
2023/01/14 10:26:58;;;;;;;0.00;0.00;;;6.40;99.90;;;;;;5091870;28;20028;-88
2023/01/14 10:29:26;;;;;;;0.00;0.00;;;6.40;99.90;;;;;;5092332;28;20052;-88
2023/01/14 10:31:59;;;;;;;0.00;0.00;;;6.40;99.90;;;;;;5092275;28;20039;-87
2023/01/14 10:34:46;;;;;;;0.10;0.10;;;6.50;99.90;;;;;;5076354;28;20036;-87
2023/01/14 10:37:13;;;;;;;0.00;0.00;;;6.50;99.90;;;;;;5091159;28;20052;-87
2023/01/14 10:39:45;;;;;;;0.00;0.00;;;6.50;99.90;;;;;;5091479;28;20196;-87
2023/01/14 10:42:12;;;;;;;0.70;0.70;;;6.50;99.90;;;;;;5091806;28;20048;-87
2023/01/14 10:44:43;;;;;;;0.00;0.00;;;6.50;99.90;;;;;;5091845;28;20530;-87
2023/01/14 10:47:13;;;;;;;0.90;0.20;;;6.60;99.90;;;;;;5091557;28;20548;-87
2023/01/14 10:49:44;;;;;;;0.00;0.00;;;6.60;99.90;;;;;;5091259;28;20105;-87
2023/01/14 10:52:24;;;;;;;0.00;0.00;;;6.60;99.90;;;;;;5091185;28;20111;-87
2023/01/14 10:55:14;;;;;;;0.70;0.50;;;6.70;99.90;;;;;;5091820;28;20051;-88
2023/01/14 10:57:57;;;;;;;0.00;0.00;;;6.80;99.90;;;;;;5061663;28;20088;-88
2023/01/14 11:00:36;;;;;;;0.00;0.00;;;6.80;99.90;;;;;;5090105;28;20052;-87
2023/01/14 11:03:04;;;;;;;0.10;0.10;;;6.80;99.90;;;;;;5091274;28;20051;-87
2023/01/14 11:05:36;;;;;;;0.38;0.38;;;6.90;99.90;;;;;;5091210;28;20051;-87
2023/01/14 11:08:13;;;;;;;0.00;0.00;;;6.90;99.90;;;;;;5091131;28;20406;-87
2023/01/14 11:10:41;;;;;;;0.13;0.13;;;8.20;99.90;;;;;;5091709;28;20056;-87
2023/01/14 11:13:27;;;;;;;1.10;0.47;;;7.00;99.90;;;;;;5090829;28;20043;-87
2023/01/14 11:15:53;;;;;;;0.10;0.10;;;7.10;99.90;;;;;;5091413;28;20136;-87
2023/01/14 11:18:19;;;;;;;5.18;2.00;;;7.10;99.90;;;;;;5090805;28;20036;-87
2023/01/14 11:20:58;;;;;;;0.00;0.00;;;7.10;99.90;;;;;;5091334;28;20044;-87
2023/01/14 11:23:33;;;;;;;0.00;0.00;;;7.10;99.90;;;;;;5091143;28;20044;-88
2023/01/14 11:26:04;;;;;;;0.00;0.00;;;7.10;99.90;;;;;;5083355;28;20048;-88
2023/01/14 11:28:30;;;;;;;0.10;0.10;;;7.10;99.90;;;;;;5091263;28;20032;-88
2023/01/14 11:30:57;;;;;;;0.25;0.15;;;7.10;99.90;;;;;;5091024;28;20039;-88
2023/01/14 11:33:25;;;;;;;0.00;0.00;;;7.00;99.90;;;;;;5091372;28;20192;-88
2023/01/14 11:35:54;;;;;;;0.43;0.43;;;7.10;99.90;;;;;;5091198;28;20044;-88
2023/01/14 11:38:21;;;;;;;0.73;0.70;;;7.10;99.90;;;;;;5090806;28;20036;-88
2023/01/14 11:44:00;;;;;;;0.50;0.50;;;7.10;99.90;;;;;;5091088;28;20144;-88
2023/01/14 11:46:25;;;;;;;0.00;0.00;;;7.20;99.90;;;;;;5091240;28;20047;-88
2023/01/14 11:49:16;;;;;;;0.00;0.00;;;7.10;99.90;;;;;;5090698;28;20074;-88
2023/01/14 11:51:57;;;;;;;0.00;0.00;;;7.10;99.90;;;;;;5082175;28;20051;-88
2023/01/14 11:54:24;;;;;;;0.10;0.10;;;7.00;99.90;;;;;;5090843;28;20071;-88
2023/01/14 11:56:50;;;;;;;0.00;0.00;;;7.40;99.90;;;;;;5089768;28;20040;-88
2023/01/14 11:59:24;;;;;;;0.00;0.00;;;7.10;99.90;;;;;;5090848;28;20575;-88
2023/01/14 12:02:12;;;;;;;0.52;0.28;;;7.20;99.90;;;;;;5090708;28;20044;-88
2023/01/14 12:05:09;;;;;;;0.00;0.00;;;7.20;99.90;;;;;;5075039;28;20135;-88
2023/01/14 12:07:36;;;;;;;0.00;0.00;;;7.20;99.90;;;;;;5092970;28;20044;-88
2023/01/14 12:10:22;;;;;;;0.65;0.65;;;7.20;99.90;;;;;;5093771;28;20047;-88
2023/01/14 12:19:04;;;;;;;0.10;0.10;;;7.30;99.90;;;;;;5096720;28;20131;-89
2023/01/14 12:21:57;;;;;;;0.00;0.00;;;7.30;99.90;;;;;;5096305;28;20052;-88
2023/01/14 12:24:33;;;;;;;0.00;0.00;;;7.20;99.90;;;;;;5096507;28;20082;-89
2023/01/14 12:27:00;;;;;;;0.00;0.00;;;7.20;99.90;;;;;;5096819;28;20044;-89
2023/01/14 12:29:34;;;;;;;0.00;0.00;;;7.30;99.90;;;;;;5096681;28;20044;-88
2023/01/14 12:32:14;;;;;;;0.05;0.05;;;7.40;99.90;;;;;;5096226;28;20048;-89
2023/01/14 12:34:48;;;;;;;0.00;0.00;;;7.40;99.90;;;;;;5095863;28;20430;-89
2023/01/14 12:37:32;;;;;;;0.20;0.20;;;7.30;99.90;;;;;;5097232;28;20044;-89
2023/01/14 12:45:50;;;;;;;0.00;0.00;;;7.40;99.90;;;;;;5096960;28;20456;-89
2023/01/14 12:48:17;;;;;;;0.00;0.00;;;7.60;99.90;;;;;;5096902;28;20521;-90
2023/01/14 12:51:01;;;;;;;2.30;1.65;;;7.60;99.90;;;;;;5097003;28;20150;-89
2023/01/14 12:53:31;;;;;;;0.30;0.30;;;7.60;99.90;;;;;;5096545;28;20036;-89
2023/01/14 12:56:00;;;;;;;0.00;0.00;;;7.60;99.90;;;;;;5096517;28;20403;-89
2023/01/14 12:58:30;;;;;;;0.00;0.00;;;7.60;99.90;;;;;;5096698;28;20070;-90
2023/01/14 13:01:01;;;;;;;0.00;0.00;;;7.70;99.90;;;;;;5096320;28;20041;-89
2023/01/14 13:03:38;;;;;;;0.00;0.00;;;7.80;99.90;;;;;;5096433;28;20055;-89
2023/01/14 13:06:08;;;;;;;;;;;8.90;99.90;;;;;;5097225;28;20040;-89
2023/01/14 13:08:35;;;;;;;0.00;0.00;;;7.90;99.90;;;;;;5095544;28;19926;-89
2023/01/14 13:11:11;;;;;;;0.25;0.25;;;7.90;99.90;;;;;;5094098;28;20084;-89
2023/01/14 13:13:41;;;;;;;0.10;0.10;;;8.00;99.90;;;;;;5094821;28;20036;-89
2023/01/14 13:16:35;;;;;;;0.00;0.00;;;7.90;99.90;;;;;;5097532;28;20036;-88
2023/01/14 13:19:25;;;;;;;0.00;0.00;;;8.10;99.90;;;;;;5098406;28;20502;-89
2023/01/14 13:22:10;;;;;;;0.47;0.28;;;8.10;99.90;;;;;;5098202;28;20070;-89
2023/01/14 13:24:47;;;;;;;0.30;0.30;;;8.20;99.90;;;;;;5098292;28;20507;-90
2023/01/14 13:27:41;;;;;;;5.22;0.20;;;8.20;99.90;;;;;;5098488;28;20081;-89
2023/01/14 13:30:19;;;;;;;0.20;0.20;;;8.20;99.90;;;;;;5098685;28;20044;-89
2023/01/14 13:33:00;;;;;;;0.00;0.00;;;8.50;99.90;;;;;;5098068;28;20052;-89
2023/01/14 13:35:31;;;;;;;0.00;0.00;;;8.40;99.90;;;;;;5116425;28;20047;-89
2023/01/14 13:37:58;;;;;;;0.00;0.00;;;8.40;99.90;;;;;;5116358;28;20074;-89
2023/01/14 13:40:36;;;;;;;0.20;0.20;;;8.50;99.90;;;;;;5101136;28;20036;-89
2023/01/14 13:43:06;;;;;;;0.10;0.10;;;8.50;99.90;;;;;;5098863;28;20044;-89
2023/01/14 13:45:35;;;;;;;0.52;0.40;;;8.50;99.90;;;;;;5097945;28;20040;-89
2023/01/14 13:48:38;;;;;;;0.00;0.00;;;8.50;99.90;;;;;;5098134;28;20131;-89
2023/01/14 13:51:45;;;;;;;0.00;0.00;;;8.60;99.90;;;;;;5098240;28;20424;-89
2023/01/14 13:54:10;;;;;;;0.22;0.22;;;8.60;99.90;;;;;;5098784;28;20076;-89
2023/01/14 13:56:50;;;;;;;0.00;0.00;;;8.70;99.90;;;;;;5098878;28;20071;-89
2023/01/14 13:59:23;;;;;;;0.00;0.00;;;8.70;99.90;;;;;;5099440;28;20040;-90